Terminal Aerodrome Forecast
Issued by NWS Wilmington, OH

Current Version | Previous Version | Text Only | Print | Product List | Glossary Off
Versions: 1 2 3 4 5 6 7 8 9 10 11 12 13 14 15 16 17 18 19 20 21

908
FTUS41 KILN 241154 AAB
TAFILN
TAF AMD
KILN 241154Z 2412/2512 03005KT 1SM BR SCT007
     FM241300 04006KT P6SM SCT012
     FM241500 05008KT P6SM BKN025
     FM241700 05008KT P6SM SCT035 BKN250
     FM250200 07005KT P6SM SCT250=

USA.gov is the U.S. government's official web portal to all federal, state and local government web resources and services.